Time;durP1;ratioP1;P1;durP2;ratioP2;P2;SDS_P1;SDS_P2;PMS_P1;PMS_P2;Temp;Humidity;BMP_temperature;BMP_pressure;BME280_temperature;BME280_humidity;BME280_pressure;Samples;Min_cycle;Max_cycle;Signal;HPM_P1;HPM_P2
2023/12/05 00:00:35;;;;;;;;;;;21.60;61.90;;;;;;5100298;28;19951;-40
2023/12/05 00:03:01;;;;;;;;;;;21.60;61.90;;;;;;5099533;28;19920;-40
2023/12/05 00:05:27;;;;;;;;;;;21.70;61.80;;;;;;5102557;28;20357;-40
2023/12/05 00:07:53;;;;;;;;;;;21.70;61.70;;;;;;5108405;28;19983;-40
2023/12/05 00:10:19;;;;;;;;;;;21.70;61.70;;;;;;5095286;28;19908;-40
2023/12/05 00:12:45;;;;;;;;;;;21.70;61.60;;;;;;5102594;28;20515;-40
2023/12/05 00:15:11;;;;;;;;;;;21.60;61.50;;;;;;5098644;28;19947;-40
2023/12/05 00:17:37;;;;;;;;;;;21.60;61.40;;;;;;5097395;28;19951;-40
2023/12/05 00:20:03;;;;;;;;;;;21.60;61.50;;;;;;5094151;28;19912;-39
2023/12/05 00:22:29;;;;;;;;;;;21.70;61.50;;;;;;5101365;28;19919;-39
2023/12/05 00:24:54;;;;;;;;;;;21.70;61.50;;;;;;5097539;28;19915;-39
2023/12/05 00:27:20;;;;;;;;;;;21.70;61.40;;;;;;5097473;28;19912;-39
2023/12/05 00:29:47;;;;;;;;;;;21.70;61.20;;;;;;5098086;28;19912;-40
2023/12/05 00:32:13;;;;;;;;;;;21.70;61.20;;;;;;5090068;28;19919;-39
2023/12/05 00:34:39;;;;;;;;;;;21.60;61.20;;;;;;5102155;28;19908;-39
2023/12/05 00:37:05;;;;;;;;;;;21.60;61.30;;;;;;5098747;28;19919;-40
2023/12/05 00:39:30;;;;;;;;;;;21.60;61.40;;;;;;5095384;28;19916;-40
2023/12/05 00:41:56;;;;;;;;;;;21.60;61.20;;;;;;5097617;28;19995;-40
2023/12/05 00:44:22;;;;;;;;;;;21.70;61.10;;;;;;5099928;28;19912;-40
2023/12/05 00:46:48;;;;;;;;;;;21.70;61.20;;;;;;5100757;28;19908;-40
2023/12/05 00:49:14;;;;;;;;;;;21.70;61.10;;;;;;5105293;28;19908;-40
2023/12/05 00:51:40;;;;;;;;;;;21.70;60.80;;;;;;5101718;28;20379;-40
2023/12/05 00:54:06;;;;;;;;;;;21.70;61.10;;;;;;5096763;28;19955;-40
2023/12/05 00:56:32;;;;;;;;;;;21.70;61.20;;;;;;5099932;28;19975;-39
2023/12/05 00:58:58;;;;;;;;;;;21.60;61.00;;;;;;5101913;28;20384;-39
2023/12/05 01:01:24;;;;;;;;;;;21.60;61.10;;;;;;5097807;28;19908;-39
2023/12/05 01:03:54;;;;;;;;;;;21.70;60.90;;;;;;5097469;28;19923;-40
2023/12/05 01:06:20;;;;;;;;;;;21.80;60.90;;;;;;5102471;28;19912;-40
2023/12/05 01:08:46;;;;;;;;;;;21.70;60.60;;;;;;5090681;28;20292;-39
2023/12/05 01:11:12;;;;;;;;;;;21.70;61.10;;;;;;5098213;28;19918;-39
2023/12/05 01:13:38;;;;;;;;;;;21.70;61.20;;;;;;5105292;28;19956;-40
2023/12/05 01:16:04;;;;;;;;;;;21.70;61.00;;;;;;5104053;28;19912;-39
2023/12/05 01:18:30;;;;;;;;;;;21.60;61.00;;;;;;5105187;28;19912;-39
2023/12/05 01:20:56;;;;;;;;;;;21.70;61.30;;;;;;5104816;28;19987;-41
2023/12/05 01:23:23;;;;;;;;;;;21.80;61.30;;;;;;5104797;28;19920;-39
2023/12/05 01:25:48;;;;;;;;;;;21.80;61.40;;;;;;5080633;28;20003;-39
2023/12/05 01:28:14;;;;;;;;;;;21.70;61.00;;;;;;5102969;28;19970;-40
2023/12/05 01:30:41;;;;;;;;;;;21.70;61.10;;;;;;5103117;28;19919;-40
2023/12/05 01:33:07;;;;;;;;;;;21.70;61.30;;;;;;5103424;28;19919;-40
2023/12/05 01:35:33;;;;;;;;;;;21.70;61.50;;;;;;5104134;28;19908;-40
2023/12/05 01:37:59;;;;;;;;;;;21.60;61.40;;;;;;5102540;28;19916;-40
2023/12/05 01:40:26;;;;;;;;;;;21.70;61.30;;;;;;5091680;28;19913;-40
2023/12/05 01:42:53;;;;;;;;;;;21.70;61.10;;;;;;5099988;28;19983;-40
2023/12/05 01:45:19;;;;;;;;;;;21.70;61.30;;;;;;5093808;28;19941;-41
2023/12/05 01:47:45;;;;;;;;;;;21.70;60.80;;;;;;5089255;28;19939;-41
2023/12/05 01:50:16;;;;;;;;;;;21.70;61.00;;;;;;5100948;28;20738;-40
2023/12/05 01:52:45;;;;;;;;;;;21.70;61.00;;;;;;5103050;28;19939;-41
2023/12/05 01:55:11;;;;;;;;;;;21.60;61.10;;;;;;5098579;28;19912;-41
2023/12/05 01:57:44;;;;;;;;;;;21.60;61.00;;;;;;5101885;28;19918;-41
2023/12/05 02:00:11;;;;;;;;;;;21.70;61.10;;;;;;5103073;28;20010;-40
2023/12/05 02:02:38;;;;;;;;;;;21.70;61.10;;;;;;5104205;28;20429;-40
2023/12/05 02:05:04;;;;;;;;;;;21.80;61.00;;;;;;5100832;28;19972;-40
2023/12/05 02:07:31;;;;;;;;;;;21.70;61.00;;;;;;5081296;28;19920;-40
2023/12/05 02:09:58;;;;;;;;;;;21.70;61.20;;;;;;5103291;28;20356;-40
2023/12/05 02:12:24;;;;;;;;;;;21.70;61.30;;;;;;5104153;28;19908;-41
2023/12/05 02:14:51;;;;;;;;;;;21.60;61.10;;;;;;5100285;28;19970;-40
2023/12/05 02:17:24;;;;;;;;;;;21.70;61.20;;;;;;5097140;28;19912;-40
2023/12/05 02:20:17;;;;;;;;;;;21.80;61.30;;;;;;5079323;28;19986;-40
2023/12/05 02:23:03;;;;;;;;;;;21.80;61.30;;;;;;5079491;28;19920;-39
2023/12/05 02:25:48;;;;;;;;;;;21.70;61.50;;;;;;5096701;28;19912;-40
2023/12/05 02:28:14;;;;;;;;;;;21.70;61.60;;;;;;5101548;28;19919;-40
2023/12/05 02:30:41;;;;;;;;;;;21.70;61.70;;;;;;5101840;28;19934;-40
2023/12/05 02:33:08;;;;;;;;;;;21.60;61.40;;;;;;5103761;28;19918;-39
2023/12/05 02:35:34;;;;;;;;;;;21.70;61.20;;;;;;5099939;28;19915;-39
2023/12/05 02:38:05;;;;;;;;;;;21.80;61.10;;;;;;5093889;28;19916;-39
2023/12/05 02:40:54;;;;;;;;;;;21.80;61.20;;;;;;5102992;28;19911;-40
2023/12/05 02:43:25;;;;;;;;;;;21.80;61.10;;;;;;5094302;28;19924;-40
2023/12/05 02:45:51;;;;;;;;;;;21.70;61.50;;;;;;5099968;28;19915;-40
2023/12/05 02:48:18;;;;;;;;;;;21.70;61.60;;;;;;5103363;28;19908;-39
2023/12/05 02:50:45;;;;;;;;;;;21.60;61.70;;;;;;5099323;28;19912;-38
2023/12/05 02:53:12;;;;;;;;;;;21.70;61.70;;;;;;5101620;28;19908;-38
2023/12/05 02:55:38;;;;;;;;;;;21.70;61.50;;;;;;5103066;28;19908;-38
2023/12/05 02:58:05;;;;;;;;;;;21.80;61.30;;;;;;5099380;28;19919;-39
2023/12/05 03:00:30;;;;;;;;;;;21.80;61.80;;;;;;5098549;28;19912;-39
2023/12/05 03:02:57;;;;;;;;;;;21.70;61.20;;;;;;5102004;28;20313;-39
2023/12/05 03:05:23;;;;;;;;;;;21.70;61.50;;;;;;5103156;28;19912;-39
2023/12/05 03:07:49;;;;;;;;;;;21.60;61.60;;;;;;5100564;28;19912;-39
2023/12/05 03:10:15;;;;;;;;;;;21.60;61.60;;;;;;5102830;28;19912;-38
2023/12/05 03:12:42;;;;;;;;;;;21.70;61.40;;;;;;5102226;28;19951;-38
2023/12/05 03:15:08;;;;;;;;;;;21.80;61.10;;;;;;5099734;28;20328;-39
2023/12/05 03:17:34;;;;;;;;;;;21.80;60.70;;;;;;5102615;28;20392;-39
2023/12/05 03:20:01;;;;;;;;;;;21.70;60.70;;;;;;5101949;28;20792;-39
2023/12/05 03:22:28;;;;;;;;;;;21.70;60.80;;;;;;5096153;28;19938;-38
2023/12/05 03:24:54;;;;;;;;;;;21.60;60.70;;;;;;5101262;28;19912;-38
2023/12/05 03:27:20;;;;;;;;;;;21.60;61.00;;;;;;5091693;28;19912;-39
2023/12/05 03:29:46;;;;;;;;;;;21.60;61.10;;;;;;5100951;28;19919;-39
2023/12/05 03:32:13;;;;;;;;;;;21.70;61.30;;;;;;5092810;28;19982;-39
2023/12/05 03:34:39;;;;;;;;;;;21.70;61.00;;;;;;5102659;28;19947;-39
2023/12/05 03:37:05;;;;;;;;;;;21.70;61.10;;;;;;5099438;28;19912;-39
2023/12/05 03:39:30;;;;;;;;;;;21.60;60.90;;;;;;5102531;28;19954;-39
2023/12/05 03:41:56;;;;;;;;;;;21.60;61.10;;;;;;5099839;28;19912;-39
2023/12/05 03:44:22;;;;;;;;;;;21.60;61.20;;;;;;5102256;28;19917;-39
2023/12/05 03:46:48;;;;;;;;;;;21.60;61.10;;;;;;5099117;28;19963;-39
2023/12/05 03:49:16;;;;;;;;;;;21.70;61.40;;;;;;5100581;28;19991;-39
2023/12/05 03:51:41;;;;;;;;;;;21.70;60.90;;;;;;5103955;28;19962;-39
2023/12/05 03:54:08;;;;;;;;;;;21.70;60.80;;;;;;5092786;28;19922;-39
2023/12/05 03:56:33;;;;;;;;;;;21.60;61.10;;;;;;5096422;28;19984;-40
2023/12/05 03:58:59;;;;;;;;;;;21.60;61.30;;;;;;5092964;28;19916;-39
2023/12/05 04:01:25;;;;;;;;;;;21.50;61.40;;;;;;5091913;28;20424;-39
2023/12/05 04:03:51;;;;;;;;;;;21.50;61.30;;;;;;5099492;28;20264;-39
2023/12/05 04:06:23;;;;;;;;;;;21.50;61.30;;;;;;5100973;28;19915;-39
2023/12/05 04:08:49;;;;;;;;;;;21.60;61.50;;;;;;5089949;28;19916;-39
2023/12/05 04:11:15;;;;;;;;;;;21.60;61.30;;;;;;5095667;28;19995;-39
2023/12/05 04:13:41;;;;;;;;;;;21.60;61.20;;;;;;5094785;28;20281;-39
2023/12/05 04:16:07;;;;;;;;;;;21.50;61.50;;;;;;5086931;28;20703;-40
2023/12/05 04:18:33;;;;;;;;;;;21.40;61.70;;;;;;5088635;28;19912;-39
2023/12/05 04:20:59;;;;;;;;;;;21.40;61.80;;;;;;5089679;28;19911;-39
2023/12/05 04:23:25;;;;;;;;;;;21.40;62.00;;;;;;5096521;28;19951;-39
2023/12/05 04:25:51;;;;;;;;;;;21.40;62.00;;;;;;5090899;28;19915;-39
2023/12/05 04:28:16;;;;;;;;;;;21.40;61.80;;;;;;5098889;28;19913;-40
2023/12/05 04:30:42;;;;;;;;;;;21.50;61.60;;;;;;5098387;28;19916;-40
2023/12/05 04:33:08;;;;;;;;;;;21.50;61.50;;;;;;5098781;28;19913;-41
2023/12/05 04:35:35;;;;;;;;;;;21.40;61.80;;;;;;5101829;28;19951;-40
2023/12/05 04:38:01;;;;;;;;;;;21.40;61.90;;;;;;5103691;28;19954;-39
2023/12/05 04:40:26;;;;;;;;;;;21.40;62.00;;;;;;5100186;28;19909;-40
2023/12/05 04:42:52;;;;;;;;;;;21.30;62.10;;;;;;5100948;28;19924;-40
2023/12/05 04:45:18;;;;;;;;;;;21.30;62.10;;;;;;5104455;28;19930;-40
2023/12/05 04:47:45;;;;;;;;;;;21.20;62.00;;;;;;5097285;28;19974;-40
2023/12/05 04:50:10;;;;;;;;;;;21.20;62.10;;;;;;5103871;28;19923;-40
2023/12/05 04:52:36;;;;;;;;;;;21.20;62.10;;;;;;5109271;28;19908;-40
2023/12/05 04:55:02;;;;;;;;;;;21.10;62.20;;;;;;5095347;28;19917;-40
2023/12/05 04:57:28;;;;;;;;;;;21.20;62.00;;;;;;5103057;28;20486;-39
2023/12/05 04:59:54;;;;;;;;;;;21.30;62.10;;;;;;5104614;28;19908;-41
2023/12/05 05:02:20;;;;;;;;;;;21.30;61.90;;;;;;5104559;28;19972;-39
2023/12/05 05:04:46;;;;;;;;;;;21.30;61.90;;;;;;5105074;28;19920;-39
2023/12/05 05:07:12;;;;;;;;;;;21.20;61.90;;;;;;5099848;28;19991;-40
2023/12/05 05:09:40;;;;;;;;;;;21.20;62.00;;;;;;5105219;28;19916;-40
2023/12/05 05:12:10;;;;;;;;;;;21.10;62.00;;;;;;5101563;28;19990;-40
2023/12/05 05:14:36;;;;;;;;;;;21.20;61.80;;;;;;5104631;28;19933;-40
2023/12/05 05:17:07;;;;;;;;;;;21.30;61.90;;;;;;5103141;28;19917;-40
2023/12/05 05:19:33;;;;;;;;;;;21.30;61.60;;;;;;5104085;28;19908;-40
2023/12/05 05:21:59;;;;;;;;;;;21.20;61.70;;;;;;5103350;28;19926;-41
2023/12/05 05:24:25;;;;;;;;;;;21.20;61.90;;;;;;5095345;28;19981;-40
2023/12/05 05:26:51;;;;;;;;;;;21.10;62.90;;;;;;5092033;28;19908;-40
2023/12/05 05:29:17;;;;;;;;;;;21.10;62.20;;;;;;5080799;28;19916;-40
2023/12/05 05:31:43;;;;;;;;;;;21.20;62.00;;;;;;5100300;28;19919;-40
2023/12/05 05:34:09;;;;;;;;;;;21.30;61.90;;;;;;5093819;28;20372;-40
2023/12/05 05:36:34;;;;;;;;;;;21.20;61.60;;;;;;5099715;28;20574;-40
2023/12/05 05:39:00;;;;;;;;;;;21.20;61.80;;;;;;5094010;28;20294;-40
2023/12/05 05:41:26;;;;;;;;;;;21.10;61.80;;;;;;5099180;28;20001;-40
2023/12/05 05:43:53;;;;;;;;;;;21.10;62.00;;;;;;5093881;28;19920;-40
2023/12/05 05:46:18;;;;;;;;;;;21.10;62.20;;;;;;5097139;28;19924;-38
2023/12/05 05:48:44;;;;;;;;;;;21.20;62.20;;;;;;5091581;28;19923;-38
2023/12/05 05:51:10;;;;;;;;;;;21.30;61.30;;;;;;5097480;28;19934;-39
2023/12/05 05:53:36;;;;;;;;;;;21.30;61.00;;;;;;5098353;28;19924;-38
2023/12/05 05:56:02;;;;;;;;;;;21.20;61.40;;;;;;5094899;28;19916;-39
2023/12/05 05:58:28;;;;;;;;;;;21.20;61.60;;;;;;5103386;28;19967;-38
2023/12/05 06:00:54;;;;;;;;;;;21.10;61.60;;;;;;5094726;28;19967;-40
2023/12/05 06:03:20;;;;;;;;;;;21.20;61.70;;;;;;5099454;28;19923;-40
2023/12/05 06:05:46;;;;;;;;;;;21.20;61.70;;;;;;5103875;28;20026;-39
2023/12/05 06:08:12;;;;;;;;;;;21.30;61.70;;;;;;5101294;28;19931;-40
2023/12/05 06:10:37;;;;;;;;;;;21.30;61.50;;;;;;5097090;28;20284;-40
2023/12/05 06:13:03;;;;;;;;;;;21.30;61.80;;;;;;5100516;28;19923;-40
2023/12/05 06:15:29;;;;;;;;;;;21.20;61.80;;;;;;5090030;28;19965;-40
2023/12/05 06:17:58;;;;;;;;;;;21.20;61.80;;;;;;5097059;28;19912;-40
2023/12/05 06:20:24;;;;;;;;;;;21.20;61.60;;;;;;5104447;28;20483;-40
2023/12/05 06:22:50;;;;;;;;;;;21.30;61.60;;;;;;5098488;28;19920;-40
2023/12/05 06:25:15;;;;;;;;;;;21.30;61.60;;;;;;5103943;28;20443;-40
2023/12/05 06:27:41;;;;;;;;;;;21.30;61.60;;;;;;5100500;28;19959;-39
2023/12/05 06:30:08;;;;;;;;;;;21.30;61.60;;;;;;5098519;28;19939;-39
2023/12/05 06:32:33;;;;;;;;;;;21.20;61.50;;;;;;5089114;28;19916;-40
2023/12/05 06:34:59;;;;;;;;;;;21.20;61.50;;;;;;5102600;28;19947;-40
2023/12/05 06:37:25;;;;;;;;;;;21.20;61.40;;;;;;5102344;28;19927;-40
2023/12/05 06:39:51;;;;;;;;;;;21.30;61.40;;;;;;5116091;27;20527;-40
2023/12/05 06:42:17;;;;;;;;;;;21.30;61.30;;;;;;5099328;28;19920;-40
2023/12/05 06:44:43;;;;;;;;;;;21.20;61.20;;;;;;5101076;28;19923;-40
2023/12/05 06:47:09;;;;;;;;;;;21.20;61.20;;;;;;5103575;28;19918;-40
2023/12/05 06:49:35;;;;;;;;;;;21.20;61.30;;;;;;5089598;28;19909;-40
2023/12/05 06:52:02;;;;;;;;;;;21.20;61.20;;;;;;5101995;28;19938;-40
2023/12/05 06:54:28;;;;;;;;;;;21.20;61.10;;;;;;5092477;28;19958;-40
2023/12/05 06:56:54;;;;;;;;;;;21.20;61.20;;;;;;5101127;28;19912;-40
2023/12/05 06:59:20;;;;;;;;;;;21.20;61.10;;;;;;5100188;28;19912;-40
2023/12/05 07:01:46;;;;;;;;;;;21.10;61.10;;;;;;5097054;28;19979;-40
2023/12/05 07:04:13;;;;;;;;;;;21.10;61.10;;;;;;5102529;28;19916;-40
2023/12/05 07:06:39;;;;;;;;;;;21.10;61.00;;;;;;5102665;28;19908;-40
2023/12/05 07:09:05;;;;;;;;;;;21.20;61.10;;;;;;5098358;28;19970;-39
2023/12/05 07:11:31;;;;;;;;;;;21.20;61.00;;;;;;5099693;28;19912;-39
2023/12/05 07:13:57;;;;;;;;;;;21.20;61.00;;;;;;5098768;28;19910;-39
2023/12/05 07:16:23;;;;;;;;;;;21.20;61.10;;;;;;5092660;28;20012;-39
2023/12/05 07:18:49;;;;;;;;;;;21.10;61.10;;;;;;5097459;28;19908;-39
2023/12/05 07:21:15;;;;;;;;;;;21.10;61.00;;;;;;5101050;28;19911;-40
2023/12/05 07:23:41;;;;;;;;;;;21.10;60.80;;;;;;5093306;28;19920;-39
2023/12/05 07:26:07;;;;;;;;;;;21.20;60.70;;;;;;5096325;28;19912;-39
2023/12/05 07:28:33;;;;;;;;;;;21.20;60.50;;;;;;5096926;28;19987;-39
2023/12/05 07:30:59;;;;;;;;;;;21.20;60.50;;;;;;5097285;28;19969;-39
2023/12/05 07:33:25;;;;;;;;;;;21.10;60.60;;;;;;5096706;28;19998;-39
2023/12/05 07:35:51;;;;;;;;;;;21.10;60.70;;;;;;5094386;28;20365;-39
2023/12/05 07:38:17;;;;;;;;;;;21.10;60.90;;;;;;5096251;28;19919;-38
2023/12/05 07:40:42;;;;;;;;;;;21.10;60.80;;;;;;5096637;28;19908;-38
2023/12/05 07:43:08;;;;;;;;;;;21.20;60.60;;;;;;5089744;28;19996;-39
2023/12/05 07:45:34;;;;;;;;;;;21.20;60.40;;;;;;5096315;28;19946;-40
2023/12/05 07:48:00;;;;;;;;;;;21.20;60.60;;;;;;5101086;28;20661;-40
2023/12/05 07:50:26;;;;;;;;;;;21.20;60.60;;;;;;5093822;28;19915;-40
2023/12/05 07:52:52;;;;;;;;;;;21.20;60.60;;;;;;5099487;28;19911;-40
2023/12/05 07:55:18;;;;;;;;;;;21.20;60.60;;;;;;5102197;28;19908;-41
2023/12/05 07:57:44;;;;;;;;;;;21.20;60.50;;;;;;5096703;28;19911;-40
2023/12/05 08:00:16;;;;;;;;;;;21.20;60.40;;;;;;5097364;28;19912;-40
2023/12/05 08:02:44;;;;;;;;;;;21.20;60.40;;;;;;5099247;28;20798;-40
2023/12/05 08:05:10;;;;;;;;;;;21.10;60.40;;;;;;5106202;28;19952;-40
2023/12/05 08:07:37;;;;;;;;;;;21.10;60.40;;;;;;5101950;28;19966;-40
2023/12/05 08:10:03;;;;;;;;;;;21.10;60.50;;;;;;5098161;28;19988;-40
2023/12/05 08:12:29;;;;;;;;;;;21.10;60.40;;;;;;5103505;28;19912;-39
2023/12/05 08:14:55;;;;;;;;;;;21.20;60.40;;;;;;5105316;28;19947;-39
2023/12/05 08:17:21;;;;;;;;;;;21.10;60.40;;;;;;5101110;28;19911;-39
2023/12/05 08:19:47;;;;;;;;;;;21.10;60.40;;;;;;5106922;28;19919;-39
2023/12/05 08:22:12;;;;;;;;;;;21.00;60.40;;;;;;5107052;28;19920;-39
2023/12/05 08:24:38;;;;;;;;;;;21.10;60.50;;;;;;5102404;28;20007;-40
2023/12/05 08:27:04;;;;;;;;;;;21.10;60.50;;;;;;5104835;28;19912;-39
2023/12/05 08:29:30;;;;;;;;;;;21.10;60.60;;;;;;5098142;28;19912;-39
2023/12/05 08:31:56;;;;;;;;;;;21.10;60.50;;;;;;5103490;28;20356;-40
2023/12/05 08:34:22;;;;;;;;;;;21.10;60.70;;;;;;5101932;28;20394;-40
2023/12/05 08:36:47;;;;;;;;;;;21.00;60.80;;;;;;5102997;28;19911;-40
2023/12/05 08:39:13;;;;;;;;;;;21.00;60.50;;;;;;5100658;28;19912;-40
2023/12/05 08:41:39;;;;;;;;;;;21.10;60.40;;;;;;5106191;28;19908;-40
2023/12/05 08:44:05;;;;;;;;;;;21.10;60.40;;;;;;5099244;28;19979;-40
2023/12/05 08:46:32;;;;;;;;;;;21.10;60.40;;;;;;5101894;28;19942;-40
2023/12/05 08:48:57;;;;;;;;;;;21.10;60.40;;;;;;5095792;28;19908;-40
2023/12/05 08:51:23;;;;;;;;;;;21.00;60.50;;;;;;5095735;28;19973;-39
2023/12/05 08:53:49;;;;;;;;;;;20.90;60.90;;;;;;5103222;28;19912;-39
2023/12/05 08:56:15;;;;;;;;;;;20.90;61.00;;;;;;5103452;28;19912;-39
2023/12/05 08:58:42;;;;;;;;;;;20.90;60.90;;;;;;5101955;28;19951;-39
2023/12/05 09:01:11;;;;;;;;;;;21.00;60.80;;;;;;5097830;28;20292;-39
2023/12/05 09:03:37;;;;;;;;;;;21.00;60.30;;;;;;5105039;28;19937;-39
2023/12/05 09:06:03;;;;;;;;;;;20.90;60.50;;;;;;5092798;28;19978;-39
2023/12/05 09:08:29;;;;;;;;;;;20.90;60.80;;;;;;5102216;28;19912;-40
2023/12/05 09:10:57;;;;;;;;;;;20.80;60.70;;;;;;5100432;28;19934;-39
2023/12/05 09:13:23;;;;;;;;;;;20.80;60.80;;;;;;5104343;28;19923;-39
2023/12/05 09:15:49;;;;;;;;;;;20.90;60.70;;;;;;5105524;28;19920;-40
2023/12/05 09:18:15;;;;;;;;;;;20.90;60.70;;;;;;5101500;28;19934;-39
2023/12/05 09:20:41;;;;;;;;;;;20.90;60.50;;;;;;5107954;28;19933;-40
2023/12/05 09:23:07;;;;;;;;;;;20.80;60.90;;;;;;5103691;28;19939;-40
2023/12/05 09:25:33;;;;;;;;;;;20.80;61.00;;;;;;5103846;28;19912;-39
2023/12/05 09:27:59;;;;;;;;;;;20.80;61.00;;;;;;5103311;28;19926;-40
2023/12/05 09:30:25;;;;;;;;;;;20.80;60.90;;;;;;5097620;28;20444;-39
2023/12/05 09:32:50;;;;;;;;;;;20.90;60.90;;;;;;5099453;28;19959;-40
2023/12/05 09:35:16;;;;;;;;;;;20.90;60.90;;;;;;5101353;28;19986;-40
2023/12/05 09:37:42;;;;;;;;;;;20.90;60.80;;;;;;5102242;28;19912;-39
2023/12/05 09:40:09;;;;;;;;;;;20.80;61.20;;;;;;5096239;28;19912;-40
2023/12/05 09:42:34;;;;;;;;;;;20.80;61.30;;;;;;5098502;28;19920;-40
2023/12/05 09:45:00;;;;;;;;;;;20.80;61.10;;;;;;5101629;28;19920;-40
2023/12/05 09:47:26;;;;;;;;;;;20.80;61.00;;;;;;5098282;28;20375;-40
2023/12/05 09:49:53;;;;;;;;;;;20.90;60.80;;;;;;5114060;28;19923;-39
2023/12/05 09:52:19;;;;;;;;;;;20.90;60.70;;;;;;5102310;28;20428;-40
2023/12/05 09:54:45;;;;;;;;;;;20.90;60.70;;;;;;5100786;28;20019;-39
2023/12/05 09:57:12;;;;;;;;;;;20.80;61.00;;;;;;5104681;28;19912;-39
2023/12/05 09:59:38;;;;;;;;;;;20.70;61.20;;;;;;5092842;28;19983;-39
2023/12/05 10:02:04;;;;;;;;;;;20.80;61.90;;;;;;5095147;28;19939;-39
2023/12/05 10:04:30;;;;;;;;;;;20.80;60.70;;;;;;5098847;28;19912;-39
2023/12/05 10:06:56;;;;;;;;;;;20.90;60.50;;;;;;5097117;28;19912;-40
2023/12/05 10:09:23;;;;;;;;;;;20.90;60.40;;;;;;5101858;28;19923;-39
2023/12/05 10:11:48;;;;;;;;;;;20.80;60.60;;;;;;5110201;28;19946;-40
2023/12/05 10:14:34;;;;;;;;;;;20.70;60.90;;;;;;5098535;28;19908;-40
2023/12/05 10:17:00;;;;;;;;;;;20.80;61.00;;;;;;5057649;28;19919;-40
2023/12/05 10:19:26;;;;;;;;;;;20.80;60.70;;;;;;5044585;28;19909;-39
2023/12/05 10:21:52;;;;;;;;;;;20.90;61.40;;;;;;5052838;28;20496;-40
2023/12/05 10:24:18;;;;;;;;;;;20.90;60.50;;;;;;5031348;28;19909;-40
2023/12/05 10:26:45;;;;;;;;;;;20.90;60.30;;;;;;5058059;28;19947;-39
2023/12/05 10:29:11;;;;;;;;;;;20.80;60.60;;;;;;5060621;28;20347;-39
2023/12/05 10:31:37;;;;;;;;;;;20.80;60.90;;;;;;5057998;28;19913;-39
2023/12/05 10:34:06;;;;;;;;;;;20.80;61.40;;;;;;5056097;28;19974;-40
2023/12/05 10:36:32;;;;;;;;;;;20.80;61.30;;;;;;5059933;28;20003;-40
2023/12/05 10:38:58;;;;;;;;;;;20.90;61.10;;;;;;5058983;28;19992;-40
2023/12/05 10:41:24;;;;;;;;;;;20.90;61.00;;;;;;5055642;28;19917;-40
2023/12/05 10:43:51;;;;;;;;;;;20.90;60.90;;;;;;5054400;28;20465;-40
2023/12/05 10:46:17;;;;;;;;;;;20.90;60.90;;;;;;5057963;28;20000;-40
2023/12/05 10:48:44;;;;;;;;;;;20.90;60.80;;;;;;5057309;28;19959;-40
2023/12/05 10:51:10;;;;;;;;;;;20.90;60.60;;;;;;5061467;28;19935;-40
2023/12/05 10:53:36;;;;;;;;;;;21.00;60.40;;;;;;5071759;28;19908;-40
2023/12/05 10:56:11;;;;;;;;;;;21.00;60.30;;;;;;5096482;28;19916;-40
2023/12/05 10:58:38;;;;;;;;;;;21.00;60.30;;;;;;5096904;28;19912;-40
2023/12/05 11:01:04;;;;;;;;;;;20.90;60.30;;;;;;5098678;28;19919;-40
2023/12/05 11:03:31;;;;;;;;;;;20.90;60.20;;;;;;5100077;28;19920;-40
2023/12/05 11:05:57;;;;;;;;;;;20.80;60.10;;;;;;5099877;28;19923;-40
2023/12/05 11:08:23;;;;;;;;;;;20.80;60.30;;;;;;5099616;28;19915;-40
2023/12/05 11:10:49;;;;;;;;;;;20.80;60.30;;;;;;5101245;28;19912;-40
2023/12/05 11:13:15;;;;;;;;;;;20.70;60.30;;;;;;5100754;28;19916;-40
2023/12/05 11:15:41;;;;;;;;;;;20.70;60.10;;;;;;5092687;28;19940;-40
2023/12/05 11:18:25;;;;;;;;;;;20.70;60.10;;;;;;5098663;28;19958;-40
2023/12/05 11:21:18;;;;;;;;;;;20.60;60.00;;;;;;5099049;28;19908;-40
2023/12/05 11:23:57;;;;;;;;;;;20.60;59.90;;;;;;5079089;28;19949;-40
2023/12/05 11:26:23;;;;;;;;;;;20.60;59.80;;;;;;5071309;28;20010;-40
2023/12/05 11:28:49;;;;;;;;;;;20.60;59.80;;;;;;5099001;28;19918;-40
2023/12/05 11:31:25;;;;;;;;;;;20.60;59.80;;;;;;5097280;28;19943;-40
2023/12/05 11:33:56;;;;;;;;;;;20.60;59.90;;;;;;5100278;28;19912;-40
2023/12/05 11:36:27;;;;;;;;;;;20.60;60.00;;;;;;5077575;28;20083;-40
2023/12/05 11:38:53;;;;;;;;;;;20.50;59.90;;;;;;5095714;28;19942;-39
2023/12/05 11:41:20;;;;;;;;;;;20.50;59.80;;;;;;5103458;28;19912;-40
2023/12/05 11:44:04;;;;;;;;;;;20.50;59.90;;;;;;5096687;28;19930;-39
2023/12/05 11:46:34;;;;;;;;;;;20.50;59.90;;;;;;5095467;28;19919;-40
2023/12/05 11:49:01;;;;;;;;;;;20.50;60.00;;;;;;5094765;28;19915;-40
2023/12/05 11:51:29;;;;;;;;;;;20.50;60.90;;;;;;5100695;28;19955;-40
2023/12/05 11:53:55;;;;;;;;;;;20.40;60.30;;;;;;5099413;28;20562;-40
2023/12/05 11:56:21;;;;;;;;;;;20.40;60.30;;;;;;5093465;28;19908;-40
2023/12/05 11:58:47;;;;;;;;;;;20.40;60.50;;;;;;5098654;28;20384;-41
2023/12/05 12:01:14;;;;;;;;;;;20.40;60.50;;;;;;5101743;28;19976;-40
2023/12/05 12:03:42;;;;;;;;;;;20.40;60.50;;;;;;5092758;28;19923;-40
2023/12/05 12:06:09;;;;;;;;;;;20.40;60.70;;;;;;5092217;28;19912;-40
2023/12/05 12:08:35;;;;;;;;;;;20.40;60.50;;;;;;5110487;28;19912;-40
2023/12/05 12:11:01;;;;;;;;;;;20.30;60.90;;;;;;5096508;28;19980;-40
2023/12/05 12:13:27;;;;;;;;;;;20.30;61.00;;;;;;5092327;28;19951;-38
2023/12/05 12:15:53;;;;;;;;;;;20.40;61.30;;;;;;5098891;28;19955;-37
2023/12/05 12:18:25;;;;;;;;;;;20.40;61.00;;;;;;5101380;28;19912;-41
2023/12/05 12:20:51;;;;;;;;;;;20.40;60.70;;;;;;5100815;28;19939;-41
2023/12/05 12:23:18;;;;;;;;;;;20.40;60.70;;;;;;5094693;28;19916;-41
2023/12/05 12:25:52;;;;;;;;;;;20.30;60.60;;;;;;5096508;28;20017;-41
2023/12/05 12:28:25;;;;;;;;;;;20.40;60.60;;;;;;5099108;28;19990;-41
2023/12/05 12:30:51;;;;;;;;;;;20.40;60.40;;;;;;5099500;28;19927;-41
2023/12/05 12:33:17;;;;;;;;;;;20.40;60.20;;;;;;5099702;28;19912;-40
2023/12/05 12:35:43;;;;;;;;;;;20.30;60.30;;;;;;5093805;28;19916;-40
2023/12/05 12:38:09;;;;;;;;;;;20.30;60.30;;;;;;5100331;28;19923;-40
2023/12/05 12:40:35;;;;;;;;;;;20.30;60.50;;;;;;5094834;28;20388;-40
2023/12/05 12:43:01;;;;;;;;;;;20.40;60.30;;;;;;5093358;28;19916;-40
2023/12/05 12:45:27;;;;;;;;;;;20.40;60.30;;;;;;5097775;28;20250;-40
2023/12/05 12:47:53;;;;;;;;;;;20.30;60.30;;;;;;5102933;28;19911;-40
2023/12/05 12:50:19;;;;;;;;;;;20.30;60.40;;;;;;5104027;28;19930;-40
2023/12/05 12:52:46;;;;;;;;;;;20.30;60.50;;;;;;5107871;28;19979;-40
2023/12/05 12:55:12;;;;;;;;;;;20.30;60.20;;;;;;5099432;28;19933;-40
2023/12/05 12:57:37;;;;;;;;;;;20.30;60.10;;;;;;5098700;28;19912;-40
2023/12/05 13:00:04;;;;;;;;;;;20.40;60.00;;;;;;5100753;28;19912;-40
2023/12/05 13:02:30;;;;;;;;;;;20.40;60.00;;;;;;5105607;28;19919;-40
2023/12/05 13:04:56;;;;;;;;;;;20.30;60.00;;;;;;5104161;28;19908;-41
2023/12/05 13:07:25;;;;;;;;;;;20.30;59.90;;;;;;5103098;28;19989;-40
2023/12/05 13:09:51;;;;;;;;;;;20.30;59.70;;;;;;5094848;28;19915;-40
2023/12/05 13:12:18;;;;;;;;;;;20.30;59.70;;;;;;5105296;28;19919;-40
2023/12/05 13:14:49;;;;;;;;;;;20.40;59.50;;;;;;5097442;28;19919;-40
2023/12/05 13:17:18;;;;;;;;;;;20.40;59.40;;;;;;5099556;28;20367;-40
2023/12/05 13:19:44;;;;;;;;;;;20.30;59.30;;;;;;5098653;28;19912;-40
2023/12/05 13:22:10;;;;;;;;;;;20.30;59.40;;;;;;5106682;28;19980;-40
2023/12/05 13:24:36;;;;;;;;;;;20.30;59.50;;;;;;5104714;28;19912;-39
2023/12/05 13:27:02;;;;;;;;;;;20.30;59.50;;;;;;5104322;28;19916;-40
2023/12/05 13:29:28;;;;;;;;;;;20.30;59.40;;;;;;5102029;28;19912;-40
2023/12/05 13:31:54;;;;;;;;;;;20.40;59.40;;;;;;5101627;28;19919;-40
2023/12/05 13:34:22;;;;;;;;;;;20.40;59.40;;;;;;5101129;28;19912;-40
2023/12/05 13:36:48;;;;;;;;;;;20.30;59.40;;;;;;5103875;28;19912;-40
2023/12/05 13:39:15;;;;;;;;;;;20.30;59.90;;;;;;5103692;28;20004;-40
2023/12/05 13:41:41;;;;;;;;;;;20.20;59.30;;;;;;5105253;28;19912;-40
2023/12/05 13:44:09;;;;;;;;;;;20.30;59.50;;;;;;5103831;28;19916;-40
2023/12/05 13:46:34;;;;;;;;;;;20.40;59.40;;;;;;5104593;28;19920;-41
2023/12/05 13:49:06;;;;;;;;;;;20.40;59.40;;;;;;5116398;27;19912;-40
2023/12/05 13:51:32;;;;;;;;;;;20.40;59.40;;;;;;5098635;28;19916;-40
2023/12/05 13:53:59;;;;;;;;;;;20.40;59.40;;;;;;5097295;28;19915;-40
2023/12/05 13:56:26;;;;;;;;;;;20.30;59.40;;;;;;5102364;28;19912;-40
2023/12/05 13:58:52;;;;;;;;;;;20.30;59.40;;;;;;5088790;28;19982;-39
2023/12/05 14:01:19;;;;;;;;;;;20.30;59.50;;;;;;5096798;28;19909;-40
2023/12/05 14:03:44;;;;;;;;;;;20.40;59.40;;;;;;5097710;28;20019;-39
2023/12/05 14:06:10;;;;;;;;;;;20.40;59.40;;;;;;5097745;28;19912;-39
2023/12/05 14:08:36;;;;;;;;;;;20.40;59.40;;;;;;5103073;28;19911;-39
2023/12/05 14:11:02;;;;;;;;;;;20.40;59.50;;;;;;5103682;28;20835;-39
2023/12/05 14:13:28;;;;;;;;;;;20.30;59.60;;;;;;5104031;28;19935;-39